sensor_id;sensor_type;location;lat;lon;timestamp;P1;durP1;ratioP1;P2;durP2;ratioP2
26375;SDS011;30544;42.196;24.336;2022-12-18T00:00:07;54.78;;;34.30;;
26375;SDS011;30544;42.196;24.336;2022-12-18T00:02:34;53.80;;;33.53;;
26375;SDS011;30544;42.196;24.336;2022-12-18T00:05:01;62.78;;;38.70;;
26375;SDS011;30544;42.196;24.336;2022-12-18T00:07:28;51.13;;;33.33;;
26375;SDS011;30544;42.196;24.336;2022-12-18T00:09:56;46.53;;;29.10;;
26375;SDS011;30544;42.196;24.336;2022-12-18T00:12:22;48.95;;;33.13;;
26375;SDS011;30544;42.196;24.336;2022-12-18T00:14:49;42.10;;;26.95;;
26375;SDS011;30544;42.196;24.336;2022-12-18T00:17:17;42.15;;;26.48;;
26375;SDS011;30544;42.196;24.336;2022-12-18T00:19:44;41.72;;;25.83;;
26375;SDS011;30544;42.196;24.336;2022-12-18T00:22:10;33.70;;;23.63;;
26375;SDS011;30544;42.196;24.336;2022-12-18T00:24:37;33.33;;;22.13;;
26375;SDS011;30544;42.196;24.336;2022-12-18T00:27:04;29.67;;;20.77;;
26375;SDS011;30544;42.196;24.336;2022-12-18T00:29:31;34.28;;;23.23;;
26375;SDS011;30544;42.196;24.336;2022-12-18T00:31:57;29.80;;;21.20;;
26375;SDS011;30544;42.196;24.336;2022-12-18T00:34:26;33.67;;;23.60;;
26375;SDS011;30544;42.196;24.336;2022-12-18T00:36:53;39.17;;;23.10;;
26375;SDS011;30544;42.196;24.336;2022-12-18T00:39:19;35.45;;;23.40;;
26375;SDS011;30544;42.196;24.336;2022-12-18T00:41:46;34.92;;;23.85;;
26375;SDS011;30544;42.196;24.336;2022-12-18T00:44:30;31.17;;;21.53;;
26375;SDS011;30544;42.196;24.336;2022-12-18T00:46:57;33.40;;;23.52;;
26375;SDS011;30544;42.196;24.336;2022-12-18T00:49:23;35.17;;;24.30;;
26375;SDS011;30544;42.196;24.336;2022-12-18T00:51:51;33.65;;;23.33;;
26375;SDS011;30544;42.196;24.336;2022-12-18T00:54:18;38.63;;;24.02;;
26375;SDS011;30544;42.196;24.336;2022-12-18T00:56:45;36.60;;;25.10;;
26375;SDS011;30544;42.196;24.336;2022-12-18T00:59:12;34.42;;;23.45;;
26375;SDS011;30544;42.196;24.336;2022-12-18T01:01:38;37.35;;;24.65;;
26375;SDS011;30544;42.196;24.336;2022-12-18T01:04:05;36.63;;;23.38;;
26375;SDS011;30544;42.196;24.336;2022-12-18T01:06:33;31.10;;;22.38;;
26375;SDS011;30544;42.196;24.336;2022-12-18T01:09:00;33.08;;;23.73;;
26375;SDS011;30544;42.196;24.336;2022-12-18T01:11:30;33.58;;;22.50;;
26375;SDS011;30544;42.196;24.336;2022-12-18T01:13:57;37.60;;;25.55;;
26375;SDS011;30544;42.196;24.336;2022-12-18T01:16:23;35.15;;;23.02;;
26375;SDS011;30544;42.196;24.336;2022-12-18T01:18:51;40.58;;;28.02;;
26375;SDS011;30544;42.196;24.336;2022-12-18T01:21:20;40.25;;;25.58;;
26375;SDS011;30544;42.196;24.336;2022-12-18T01:23:50;35.83;;;22.35;;
26375;SDS011;30544;42.196;24.336;2022-12-18T01:26:18;32.53;;;22.20;;
26375;SDS011;30544;42.196;24.336;2022-12-18T01:28:45;31.73;;;21.15;;
26375;SDS011;30544;42.196;24.336;2022-12-18T01:31:12;34.72;;;21.75;;
26375;SDS011;30544;42.196;24.336;2022-12-18T01:33:41;31.45;;;20.23;;
26375;SDS011;30544;42.196;24.336;2022-12-18T01:36:08;31.42;;;21.42;;
26375;SDS011;30544;42.196;24.336;2022-12-18T01:38:40;31.38;;;20.05;;
26375;SDS011;30544;42.196;24.336;2022-12-18T01:41:09;30.63;;;21.10;;
26375;SDS011;30544;42.196;24.336;2022-12-18T01:43:46;32.78;;;21.60;;
26375;SDS011;30544;42.196;24.336;2022-12-18T01:46:16;35.00;;;22.52;;
26375;SDS011;30544;42.196;24.336;2022-12-18T01:48:44;35.53;;;22.58;;
26375;SDS011;30544;42.196;24.336;2022-12-18T01:51:13;31.88;;;22.23;;
26375;SDS011;30544;42.196;24.336;2022-12-18T01:53:40;27.83;;;20.58;;
26375;SDS011;30544;42.196;24.336;2022-12-18T01:56:11;29.48;;;20.20;;
26375;SDS011;30544;42.196;24.336;2022-12-18T01:58:41;30.50;;;20.50;;
26375;SDS011;30544;42.196;24.336;2022-12-18T02:01:12;31.13;;;19.38;;
26375;SDS011;30544;42.196;24.336;2022-12-18T02:03:40;34.92;;;20.17;;
26375;SDS011;30544;42.196;24.336;2022-12-18T02:06:10;29.02;;;18.83;;
26375;SDS011;30544;42.196;24.336;2022-12-18T02:08:43;30.30;;;19.27;;
26375;SDS011;30544;42.196;24.336;2022-12-18T02:11:21;26.30;;;17.35;;
26375;SDS011;30544;42.196;24.336;2022-12-18T02:14:00;27.17;;;17.30;;
26375;SDS011;30544;42.196;24.336;2022-12-18T02:16:35;27.40;;;17.75;;
26375;SDS011;30544;42.196;24.336;2022-12-18T02:19:06;26.35;;;18.23;;
26375;SDS011;30544;42.196;24.336;2022-12-18T02:21:44;27.25;;;17.85;;
26375;SDS011;30544;42.196;24.336;2022-12-18T02:24:17;22.75;;;16.10;;
26375;SDS011;30544;42.196;24.336;2022-12-18T02:26:55;22.15;;;14.35;;
26375;SDS011;30544;42.196;24.336;2022-12-18T02:29:25;20.85;;;14.70;;
26375;SDS011;30544;42.196;24.336;2022-12-18T02:31:55;22.70;;;15.43;;
26375;SDS011;30544;42.196;24.336;2022-12-18T02:34:25;19.35;;;14.30;;
26375;SDS011;30544;42.196;24.336;2022-12-18T02:36:54;22.77;;;15.43;;
26375;SDS011;30544;42.196;24.336;2022-12-18T02:39:23;22.33;;;16.33;;
26375;SDS011;30544;42.196;24.336;2022-12-18T02:41:54;21.92;;;15.07;;
26375;SDS011;30544;42.196;24.336;2022-12-18T02:44:21;23.40;;;16.38;;
26375;SDS011;30544;42.196;24.336;2022-12-18T02:46:49;31.30;;;16.17;;
26375;SDS011;30544;42.196;24.336;2022-12-18T02:49:21;28.23;;;17.15;;
26375;SDS011;30544;42.196;24.336;2022-12-18T02:52:01;27.95;;;15.80;;
26375;SDS011;30544;42.196;24.336;2022-12-18T02:54:37;22.38;;;13.80;;
26375;SDS011;30544;42.196;24.336;2022-12-18T02:57:15;18.90;;;13.50;;
26375;SDS011;30544;42.196;24.336;2022-12-18T02:59:50;19.73;;;13.35;;
26375;SDS011;30544;42.196;24.336;2022-12-18T03:02:25;17.73;;;12.55;;
26375;SDS011;30544;42.196;24.336;2022-12-18T03:04:59;18.67;;;12.25;;
26375;SDS011;30544;42.196;24.336;2022-12-18T03:07:34;21.58;;;13.52;;
26375;SDS011;30544;42.196;24.336;2022-12-18T03:10:04;28.15;;;15.95;;
26375;SDS011;30544;42.196;24.336;2022-12-18T03:12:37;34.25;;;16.85;;
26375;SDS011;30544;42.196;24.336;2022-12-18T03:15:08;37.70;;;20.40;;
26375;SDS011;30544;42.196;24.336;2022-12-18T03:17:40;42.95;;;22.80;;
26375;SDS011;30544;42.196;24.336;2022-12-18T03:20:12;28.48;;;17.58;;
26375;SDS011;30544;42.196;24.336;2022-12-18T03:22:42;25.95;;;15.98;;
26375;SDS011;30544;42.196;24.336;2022-12-18T03:25:13;17.33;;;12.10;;
26375;SDS011;30544;42.196;24.336;2022-12-18T03:27:44;21.75;;;12.50;;
26375;SDS011;30544;42.196;24.336;2022-12-18T03:30:13;15.63;;;10.65;;
26375;SDS011;30544;42.196;24.336;2022-12-18T03:32:42;14.50;;;9.77;;
26375;SDS011;30544;42.196;24.336;2022-12-18T03:35:14;19.42;;;11.05;;
26375;SDS011;30544;42.196;24.336;2022-12-18T03:37:45;16.08;;;10.20;;
26375;SDS011;30544;42.196;24.336;2022-12-18T03:40:12;14.30;;;9.27;;
26375;SDS011;30544;42.196;24.336;2022-12-18T03:42:41;16.88;;;9.52;;
26375;SDS011;30544;42.196;24.336;2022-12-18T03:45:18;18.35;;;10.70;;
26375;SDS011;30544;42.196;24.336;2022-12-18T03:47:53;16.30;;;9.90;;
26375;SDS011;30544;42.196;24.336;2022-12-18T03:50:28;19.95;;;10.43;;
26375;SDS011;30544;42.196;24.336;2022-12-18T03:53:04;16.50;;;10.05;;
26375;SDS011;30544;42.196;24.336;2022-12-18T03:55:38;14.20;;;9.75;;
26375;SDS011;30544;42.196;24.336;2022-12-18T03:58:07;18.85;;;10.35;;
26375;SDS011;30544;42.196;24.336;2022-12-18T04:00:37;15.05;;;8.70;;
26375;SDS011;30544;42.196;24.336;2022-12-18T04:03:05;13.35;;;8.77;;
26375;SDS011;30544;42.196;24.336;2022-12-18T04:05:33;16.08;;;9.98;;
26375;SDS011;30544;42.196;24.336;2022-12-18T04:08:05;13.70;;;8.50;;
26375;SDS011;30544;42.196;24.336;2022-12-18T04:10:32;13.02;;;9.07;;
26375;SDS011;30544;42.196;24.336;2022-12-18T04:12:58;16.23;;;9.30;;
26375;SDS011;30544;42.196;24.336;2022-12-18T04:15:27;13.00;;;9.07;;
26375;SDS011;30544;42.196;24.336;2022-12-18T04:17:53;10.73;;;7.85;;
26375;SDS011;30544;42.196;24.336;2022-12-18T04:20:20;16.75;;;8.60;;
26375;SDS011;30544;42.196;24.336;2022-12-18T04:22:47;13.68;;;8.95;;
26375;SDS011;30544;42.196;24.336;2022-12-18T04:25:14;14.85;;;8.63;;
26375;SDS011;30544;42.196;24.336;2022-12-18T04:27:40;14.85;;;9.32;;
26375;SDS011;30544;42.196;24.336;2022-12-18T04:30:08;17.58;;;9.88;;
26375;SDS011;30544;42.196;24.336;2022-12-18T04:32:37;13.48;;;8.20;;
26375;SDS011;30544;42.196;24.336;2022-12-18T04:35:04;17.02;;;9.30;;
26375;SDS011;30544;42.196;24.336;2022-12-18T04:37:35;17.33;;;10.45;;
26375;SDS011;30544;42.196;24.336;2022-12-18T04:40:05;14.93;;;9.10;;
26375;SDS011;30544;42.196;24.336;2022-12-18T04:42:33;17.05;;;9.02;;
26375;SDS011;30544;42.196;24.336;2022-12-18T04:45:00;12.63;;;8.68;;
26375;SDS011;30544;42.196;24.336;2022-12-18T04:47:26;15.55;;;9.50;;
26375;SDS011;30544;42.196;24.336;2022-12-18T04:49:55;11.13;;;7.78;;
26375;SDS011;30544;42.196;24.336;2022-12-18T04:52:21;14.82;;;8.90;;
26375;SDS011;30544;42.196;24.336;2022-12-18T04:54:48;16.23;;;8.63;;
26375;SDS011;30544;42.196;24.336;2022-12-18T04:57:15;19.70;;;10.90;;
26375;SDS011;30544;42.196;24.336;2022-12-18T04:59:43;12.98;;;7.82;;
26375;SDS011;30544;42.196;24.336;2022-12-18T05:02:10;16.17;;;9.70;;
26375;SDS011;30544;42.196;24.336;2022-12-18T05:04:36;28.05;;;12.73;;
26375;SDS011;30544;42.196;24.336;2022-12-18T05:07:05;16.33;;;9.02;;
26375;SDS011;30544;42.196;24.336;2022-12-18T05:09:31;20.20;;;11.68;;
26375;SDS011;30544;42.196;24.336;2022-12-18T05:11:58;24.50;;;12.25;;
26375;SDS011;30544;42.196;24.336;2022-12-18T05:14:25;24.17;;;12.90;;
26375;SDS011;30544;42.196;24.336;2022-12-18T05:16:52;20.00;;;11.45;;
26375;SDS011;30544;42.196;24.336;2022-12-18T05:19:19;27.58;;;14.63;;
26375;SDS011;30544;42.196;24.336;2022-12-18T05:21:46;202.73;;;62.65;;
26375;SDS011;30544;42.196;24.336;2022-12-18T05:24:14;40.20;;;18.63;;
26375;SDS011;30544;42.196;24.336;2022-12-18T05:26:41;62.15;;;23.95;;
26375;SDS011;30544;42.196;24.336;2022-12-18T05:29:07;51.22;;;27.27;;
26375;SDS011;30544;42.196;24.336;2022-12-18T05:31:37;21.65;;;12.98;;
26375;SDS011;30544;42.196;24.336;2022-12-18T05:34:04;21.58;;;12.68;;
26375;SDS011;30544;42.196;24.336;2022-12-18T05:36:30;19.45;;;11.50;;
26375;SDS011;30544;42.196;24.336;2022-12-18T05:38:57;31.23;;;16.70;;
26375;SDS011;30544;42.196;24.336;2022-12-18T05:41:26;24.13;;;13.93;;
26375;SDS011;30544;42.196;24.336;2022-12-18T05:43:53;26.65;;;14.13;;
26375;SDS011;30544;42.196;24.336;2022-12-18T05:46:20;51.97;;;23.13;;
26375;SDS011;30544;42.196;24.336;2022-12-18T05:48:47;17.92;;;11.40;;
26375;SDS011;30544;42.196;24.336;2022-12-18T05:51:16;19.17;;;11.23;;
26375;SDS011;30544;42.196;24.336;2022-12-18T05:53:45;18.88;;;10.75;;
26375;SDS011;30544;42.196;24.336;2022-12-18T05:56:14;17.95;;;10.57;;
26375;SDS011;30544;42.196;24.336;2022-12-18T05:58:43;21.25;;;11.68;;
26375;SDS011;30544;42.196;24.336;2022-12-18T06:01:13;18.52;;;11.23;;
26375;SDS011;30544;42.196;24.336;2022-12-18T06:03:42;15.45;;;10.30;;
26375;SDS011;30544;42.196;24.336;2022-12-18T06:06:13;18.05;;;10.80;;
26375;SDS011;30544;42.196;24.336;2022-12-18T06:08:40;15.00;;;9.80;;
26375;SDS011;30544;42.196;24.336;2022-12-18T06:11:07;21.25;;;11.13;;
26375;SDS011;30544;42.196;24.336;2022-12-18T06:13:34;17.00;;;10.23;;
26375;SDS011;30544;42.196;24.336;2022-12-18T06:16:03;15.95;;;10.02;;
26375;SDS011;30544;42.196;24.336;2022-12-18T06:18:30;19.70;;;11.07;;
26375;SDS011;30544;42.196;24.336;2022-12-18T06:20:57;21.17;;;11.93;;
26375;SDS011;30544;42.196;24.336;2022-12-18T06:23:25;24.25;;;11.93;;
26375;SDS011;30544;42.196;24.336;2022-12-18T06:25:52;21.00;;;11.88;;
26375;SDS011;30544;42.196;24.336;2022-12-18T06:28:19;19.73;;;11.43;;
26375;SDS011;30544;42.196;24.336;2022-12-18T06:30:46;22.70;;;12.15;;
26375;SDS011;30544;42.196;24.336;2022-12-18T06:33:15;21.23;;;11.43;;
26375;SDS011;30544;42.196;24.336;2022-12-18T06:35:42;19.48;;;11.50;;
26375;SDS011;30544;42.196;24.336;2022-12-18T06:38:09;27.95;;;14.13;;
26375;SDS011;30544;42.196;24.336;2022-12-18T06:40:36;20.75;;;11.98;;
26375;SDS011;30544;42.196;24.336;2022-12-18T06:43:04;18.45;;;12.10;;
26375;SDS011;30544;42.196;24.336;2022-12-18T06:45:30;25.75;;;13.90;;
26375;SDS011;30544;42.196;24.336;2022-12-18T06:47:57;23.65;;;13.43;;
26375;SDS011;30544;42.196;24.336;2022-12-18T06:50:25;24.15;;;13.35;;
26375;SDS011;30544;42.196;24.336;2022-12-18T06:52:52;24.33;;;12.23;;
26375;SDS011;30544;42.196;24.336;2022-12-18T06:55:19;26.70;;;12.68;;
26375;SDS011;30544;42.196;24.336;2022-12-18T06:57:46;25.17;;;12.52;;
26375;SDS011;30544;42.196;24.336;2022-12-18T07:00:13;22.27;;;12.32;;
26375;SDS011;30544;42.196;24.336;2022-12-18T07:02:40;21.40;;;11.13;;
26375;SDS011;30544;42.196;24.336;2022-12-18T07:05:07;19.98;;;10.95;;
26375;SDS011;30544;42.196;24.336;2022-12-18T07:07:35;20.08;;;12.45;;
26375;SDS011;30544;42.196;24.336;2022-12-18T07:10:02;22.40;;;12.13;;
26375;SDS011;30544;42.196;24.336;2022-12-18T07:12:29;21.30;;;12.55;;
26375;SDS011;30544;42.196;24.336;2022-12-18T07:14:56;21.15;;;13.05;;
26375;SDS011;30544;42.196;24.336;2022-12-18T07:17:23;21.58;;;13.43;;
26375;SDS011;30544;42.196;24.336;2022-12-18T07:19:50;25.13;;;13.80;;
26375;SDS011;30544;42.196;24.336;2022-12-18T07:22:17;25.27;;;15.13;;
26375;SDS011;30544;42.196;24.336;2022-12-18T07:24:45;28.95;;;14.32;;
26375;SDS011;30544;42.196;24.336;2022-12-18T07:27:11;25.73;;;12.45;;
26375;SDS011;30544;42.196;24.336;2022-12-18T07:29:38;19.75;;;11.95;;
26375;SDS011;30544;42.196;24.336;2022-12-18T07:32:05;19.17;;;12.43;;
26375;SDS011;30544;42.196;24.336;2022-12-18T07:34:32;21.90;;;13.40;;
26375;SDS011;30544;42.196;24.336;2022-12-18T07:36:59;28.85;;;17.95;;
26375;SDS011;30544;42.196;24.336;2022-12-18T07:39:26;28.13;;;15.90;;
26375;SDS011;30544;42.196;24.336;2022-12-18T07:41:54;29.00;;;16.58;;
26375;SDS011;30544;42.196;24.336;2022-12-18T07:44:38;20.52;;;14.13;;
26375;SDS011;30544;42.196;24.336;2022-12-18T07:47:05;20.48;;;13.43;;
26375;SDS011;30544;42.196;24.336;2022-12-18T07:49:32;23.58;;;13.65;;
26375;SDS011;30544;42.196;24.336;2022-12-18T07:51:59;20.55;;;14.13;;
26375;SDS011;30544;42.196;24.336;2022-12-18T07:54:26;21.08;;;13.68;;
26375;SDS011;30544;42.196;24.336;2022-12-18T07:56:55;24.48;;;14.10;;
26375;SDS011;30544;42.196;24.336;2022-12-18T07:59:22;19.83;;;12.73;;
26375;SDS011;30544;42.196;24.336;2022-12-18T08:01:48;21.05;;;12.82;;
26375;SDS011;30544;42.196;24.336;2022-12-18T08:04:15;20.98;;;12.85;;
26375;SDS011;30544;42.196;24.336;2022-12-18T08:06:42;39.85;;;19.92;;
26375;SDS011;30544;42.196;24.336;2022-12-18T08:09:09;17.13;;;11.02;;
26375;SDS011;30544;42.196;24.336;2022-12-18T08:11:36;16.95;;;10.70;;
26375;SDS011;30544;42.196;24.336;2022-12-18T08:14:04;17.17;;;10.70;;
26375;SDS011;30544;42.196;24.336;2022-12-18T08:16:31;20.67;;;12.30;;
26375;SDS011;30544;42.196;24.336;2022-12-18T08:18:58;25.58;;;12.35;;
26375;SDS011;30544;42.196;24.336;2022-12-18T08:21:25;24.67;;;11.65;;
26375;SDS011;30544;42.196;24.336;2022-12-18T08:23:53;19.52;;;11.45;;
26375;SDS011;30544;42.196;24.336;2022-12-18T08:26:22;17.52;;;11.25;;
26375;SDS011;30544;42.196;24.336;2022-12-18T08:28:50;17.25;;;11.40;;
26375;SDS011;30544;42.196;24.336;2022-12-18T08:31:18;17.38;;;11.20;;
26375;SDS011;30544;42.196;24.336;2022-12-18T08:33:47;18.70;;;11.52;;
26375;SDS011;30544;42.196;24.336;2022-12-18T08:36:14;21.92;;;10.55;;
26375;SDS011;30544;42.196;24.336;2022-12-18T08:38:41;16.00;;;10.63;;
26375;SDS011;30544;42.196;24.336;2022-12-18T08:41:09;22.40;;;10.55;;
26375;SDS011;30544;42.196;24.336;2022-12-18T08:43:37;23.02;;;12.20;;
26375;SDS011;30544;42.196;24.336;2022-12-18T08:46:24;17.25;;;12.05;;
26375;SDS011;30544;42.196;24.336;2022-12-18T08:48:52;25.30;;;12.02;;
26375;SDS011;30544;42.196;24.336;2022-12-18T08:51:20;16.13;;;11.27;;
26375;SDS011;30544;42.196;24.336;2022-12-18T08:53:47;18.65;;;12.23;;
26375;SDS011;30544;42.196;24.336;2022-12-18T08:56:14;20.27;;;13.27;;
26375;SDS011;30544;42.196;24.336;2022-12-18T08:58:41;17.60;;;11.98;;
26375;SDS011;30544;42.196;24.336;2022-12-18T09:01:09;20.73;;;13.82;;
26375;SDS011;30544;42.196;24.336;2022-12-18T09:03:38;23.23;;;12.60;;
26375;SDS011;30544;42.196;24.336;2022-12-18T09:06:06;21.70;;;12.95;;
26375;SDS011;30544;42.196;24.336;2022-12-18T09:08:33;17.52;;;11.93;;
26375;SDS011;30544;42.196;24.336;2022-12-18T09:11:01;20.88;;;13.75;;
26375;SDS011;30544;42.196;24.336;2022-12-18T09:13:28;20.98;;;13.73;;
26375;SDS011;30544;42.196;24.336;2022-12-18T09:15:55;19.73;;;13.07;;
26375;SDS011;30544;42.196;24.336;2022-12-18T09:18:23;18.05;;;11.25;;
26375;SDS011;30544;42.196;24.336;2022-12-18T09:20:51;13.68;;;8.98;;
26375;SDS011;30544;42.196;24.336;2022-12-18T09:23:18;17.00;;;9.98;;
26375;SDS011;30544;42.196;24.336;2022-12-18T09:25:46;14.35;;;9.13;;
26375;SDS011;30544;42.196;24.336;2022-12-18T09:28:13;11.73;;;8.02;;
26375;SDS011;30544;42.196;24.336;2022-12-18T09:30:41;14.55;;;8.93;;
26375;SDS011;30544;42.196;24.336;2022-12-18T09:33:09;12.70;;;8.68;;
26375;SDS011;30544;42.196;24.336;2022-12-18T09:35:36;16.83;;;10.02;;
26375;SDS011;30544;42.196;24.336;2022-12-18T09:38:07;20.80;;;8.90;;
26375;SDS011;30544;42.196;24.336;2022-12-18T09:40:39;15.93;;;8.48;;
26375;SDS011;30544;42.196;24.336;2022-12-18T09:43:10;13.82;;;8.85;;
26375;SDS011;30544;42.196;24.336;2022-12-18T09:45:42;15.73;;;9.13;;
26375;SDS011;30544;42.196;24.336;2022-12-18T09:50:43;14.25;;;9.25;;
26375;SDS011;30544;42.196;24.336;2022-12-18T09:53:14;17.77;;;10.15;;
26375;SDS011;30544;42.196;24.336;2022-12-18T09:55:46;18.08;;;10.90;;
26375;SDS011;30544;42.196;24.336;2022-12-18T09:58:16;16.80;;;10.88;;
26375;SDS011;30544;42.196;24.336;2022-12-18T10:00:51;16.45;;;10.73;;
26375;SDS011;30544;42.196;24.336;2022-12-18T10:03:18;16.73;;;10.65;;
26375;SDS011;30544;42.196;24.336;2022-12-18T10:05:48;17.20;;;8.98;;
26375;SDS011;30544;42.196;24.336;2022-12-18T10:08:24;17.45;;;9.90;;
26375;SDS011;30544;42.196;24.336;2022-12-18T10:11:00;13.02;;;8.65;;
26375;SDS011;30544;42.196;24.336;2022-12-18T10:13:41;20.90;;;12.20;;
26375;SDS011;30544;42.196;24.336;2022-12-18T10:16:12;25.85;;;15.10;;
26375;SDS011;30544;42.196;24.336;2022-12-18T10:18:56;17.25;;;10.55;;
26375;SDS011;30544;42.196;24.336;2022-12-18T10:21:32;25.00;;;13.18;;
26375;SDS011;30544;42.196;24.336;2022-12-18T10:24:08;18.48;;;10.38;;
26375;SDS011;30544;42.196;24.336;2022-12-18T10:26:43;17.38;;;11.40;;
26375;SDS011;30544;42.196;24.336;2022-12-18T10:29:11;21.50;;;11.40;;
26375;SDS011;30544;42.196;24.336;2022-12-18T10:31:40;29.17;;;15.00;;
26375;SDS011;30544;42.196;24.336;2022-12-18T10:34:09;22.10;;;12.40;;
26375;SDS011;30544;42.196;24.336;2022-12-18T10:36:36;25.60;;;14.23;;
26375;SDS011;30544;42.196;24.336;2022-12-18T10:39:15;24.98;;;13.45;;
26375;SDS011;30544;42.196;24.336;2022-12-18T10:41:43;24.33;;;13.80;;
26375;SDS011;30544;42.196;24.336;2022-12-18T10:44:10;23.27;;;13.10;;
26375;SDS011;30544;42.196;24.336;2022-12-18T10:46:40;19.20;;;10.77;;
26375;SDS011;30544;42.196;24.336;2022-12-18T10:49:17;20.17;;;11.07;;
26375;SDS011;30544;42.196;24.336;2022-12-18T10:51:47;21.40;;;11.95;;
26375;SDS011;30544;42.196;24.336;2022-12-18T10:54:17;21.52;;;12.18;;
26375;SDS011;30544;42.196;24.336;2022-12-18T10:56:45;24.65;;;13.18;;
26375;SDS011;30544;42.196;24.336;2022-12-18T10:59:13;24.73;;;14.27;;
26375;SDS011;30544;42.196;24.336;2022-12-18T11:01:48;22.35;;;13.13;;
26375;SDS011;30544;42.196;24.336;2022-12-18T11:04:18;16.35;;;11.52;;
26375;SDS011;30544;42.196;24.336;2022-12-18T11:09:37;20.73;;;13.40;;
26375;SDS011;30544;42.196;24.336;2022-12-18T11:12:06;19.17;;;12.48;;
26375;SDS011;30544;42.196;24.336;2022-12-18T11:14:43;19.52;;;11.95;;
26375;SDS011;30544;42.196;24.336;2022-12-18T11:17:17;28.45;;;13.55;;
26375;SDS011;30544;42.196;24.336;2022-12-18T11:19:45;25.73;;;13.93;;
26375;SDS011;30544;42.196;24.336;2022-12-18T11:22:20;33.40;;;17.40;;
26375;SDS011;30544;42.196;24.336;2022-12-18T11:24:54;61.22;;;25.27;;
26375;SDS011;30544;42.196;24.336;2022-12-18T11:27:23;61.25;;;28.05;;
26375;SDS011;30544;42.196;24.336;2022-12-18T11:29:50;28.42;;;15.30;;
26375;SDS011;30544;42.196;24.336;2022-12-18T11:32:22;22.40;;;12.27;;
26375;SDS011;30544;42.196;24.336;2022-12-18T11:34:58;18.30;;;11.73;;
26375;SDS011;30544;42.196;24.336;2022-12-18T11:37:29;17.38;;;11.18;;
26375;SDS011;30544;42.196;24.336;2022-12-18T11:39:59;19.10;;;11.27;;
26375;SDS011;30544;42.196;24.336;2022-12-18T11:42:39;21.92;;;11.40;;
26375;SDS011;30544;42.196;24.336;2022-12-18T11:45:20;18.95;;;11.75;;
26375;SDS011;30544;42.196;24.336;2022-12-18T11:47:54;18.35;;;11.45;;
26375;SDS011;30544;42.196;24.336;2022-12-18T11:50:25;21.15;;;10.68;;
26375;SDS011;30544;42.196;24.336;2022-12-18T11:52:56;22.23;;;13.35;;
26375;SDS011;30544;42.196;24.336;2022-12-18T11:55:28;82.25;;;32.65;;
26375;SDS011;30544;42.196;24.336;2022-12-18T11:58:02;59.05;;;25.20;;
26375;SDS011;30544;42.196;24.336;2022-12-18T12:00:39;57.17;;;24.40;;
26375;SDS011;30544;42.196;24.336;2022-12-18T12:03:18;58.63;;;32.03;;
26375;SDS011;30544;42.196;24.336;2022-12-18T12:05:56;20.98;;;13.82;;
26375;SDS011;30544;42.196;24.336;2022-12-18T12:08:35;24.00;;;14.80;;
26375;SDS011;30544;42.196;24.336;2022-12-18T12:11:11;33.30;;;17.33;;
26375;SDS011;30544;42.196;24.336;2022-12-18T12:13:49;25.83;;;16.05;;
26375;SDS011;30544;42.196;24.336;2022-12-18T12:16:24;24.60;;;14.85;;
26375;SDS011;30544;42.196;24.336;2022-12-18T12:19:01;23.33;;;14.68;;
26375;SDS011;30544;42.196;24.336;2022-12-18T12:21:42;24.67;;;15.23;;
26375;SDS011;30544;42.196;24.336;2022-12-18T12:26:52;29.77;;;16.73;;
26375;SDS011;30544;42.196;24.336;2022-12-18T12:29:35;25.58;;;14.63;;
26375;SDS011;30544;42.196;24.336;2022-12-18T12:32:17;36.80;;;18.33;;
26375;SDS011;30544;42.196;24.336;2022-12-18T12:34:54;31.63;;;17.80;;
26375;SDS011;30544;42.196;24.336;2022-12-18T12:37:36;24.85;;;14.98;;
26375;SDS011;30544;42.196;24.336;2022-12-18T12:40:10;23.52;;;14.05;;
26375;SDS011;30544;42.196;24.336;2022-12-18T12:42:41;22.42;;;14.60;;
26375;SDS011;30544;42.196;24.336;2022-12-18T12:45:34;22.88;;;13.95;;
26375;SDS011;30544;42.196;24.336;2022-12-18T12:48:05;27.08;;;15.15;;
26375;SDS011;30544;42.196;24.336;2022-12-18T12:50:40;22.02;;;15.18;;
26375;SDS011;30544;42.196;24.336;2022-12-18T12:53:08;27.55;;;16.02;;
26375;SDS011;30544;42.196;24.336;2022-12-18T12:55:40;26.38;;;15.25;;
26375;SDS011;30544;42.196;24.336;2022-12-18T12:58:10;22.45;;;13.70;;
26375;SDS011;30544;42.196;24.336;2022-12-18T13:00:46;27.00;;;16.42;;
26375;SDS011;30544;42.196;24.336;2022-12-18T13:03:28;32.72;;;17.13;;
26375;SDS011;30544;42.196;24.336;2022-12-18T13:06:02;27.58;;;16.63;;
26375;SDS011;30544;42.196;24.336;2022-12-18T13:08:34;27.20;;;15.90;;
26375;SDS011;30544;42.196;24.336;2022-12-18T13:14:19;26.42;;;15.95;;
26375;SDS011;30544;42.196;24.336;2022-12-18T13:16:52;26.05;;;15.00;;
26375;SDS011;30544;42.196;24.336;2022-12-18T13:19:42;31.55;;;16.58;;
26375;SDS011;30544;42.196;24.336;2022-12-18T13:22:20;26.75;;;16.58;;
26375;SDS011;30544;42.196;24.336;2022-12-18T13:24:48;26.17;;;15.60;;
26375;SDS011;30544;42.196;24.336;2022-12-18T13:45:36;30.63;;;16.42;;
26375;SDS011;30544;42.196;24.336;2022-12-18T13:48:12;29.30;;;17.42;;
26375;SDS011;30544;42.196;24.336;2022-12-18T13:50:44;30.60;;;17.50;;
26375;SDS011;30544;42.196;24.336;2022-12-18T13:53:16;26.10;;;16.13;;
26375;SDS011;30544;42.196;24.336;2022-12-18T13:55:48;34.67;;;19.30;;
26375;SDS011;30544;42.196;24.336;2022-12-18T13:58:16;26.50;;;15.70;;
26375;SDS011;30544;42.196;24.336;2022-12-18T14:00:42;34.10;;;17.20;;
26375;SDS011;30544;42.196;24.336;2022-12-18T14:03:16;28.25;;;16.50;;
26375;SDS011;30544;42.196;24.336;2022-12-18T14:05:46;29.02;;;17.77;;
26375;SDS011;30544;42.196;24.336;2022-12-18T14:08:20;30.73;;;18.40;;
26375;SDS011;30544;42.196;24.336;2022-12-18T14:10:48;30.27;;;17.50;;
26375;SDS011;30544;42.196;24.336;2022-12-18T14:13:23;32.80;;;18.00;;
26375;SDS011;30544;42.196;24.336;2022-12-18T14:15:53;32.80;;;18.20;;
26375;SDS011;30544;42.196;24.336;2022-12-18T14:18:20;31.48;;;18.13;;
26375;SDS011;30544;42.196;24.336;2022-12-18T14:20:51;29.45;;;17.85;;
26375;SDS011;30544;42.196;24.336;2022-12-18T14:23:28;29.48;;;17.40;;
26375;SDS011;30544;42.196;24.336;2022-12-18T14:25:56;29.23;;;18.10;;
26375;SDS011;30544;42.196;24.336;2022-12-18T14:28:23;32.10;;;17.60;;
26375;SDS011;30544;42.196;24.336;2022-12-18T14:30:51;31.73;;;18.10;;
26375;SDS011;30544;42.196;24.336;2022-12-18T14:33:18;27.50;;;16.35;;
26375;SDS011;30544;42.196;24.336;2022-12-18T14:35:54;35.00;;;19.02;;
26375;SDS011;30544;42.196;24.336;2022-12-18T14:38:25;30.15;;;17.27;;
26375;SDS011;30544;42.196;24.336;2022-12-18T14:40:54;33.25;;;18.25;;
26375;SDS011;30544;42.196;24.336;2022-12-18T14:43:27;34.35;;;19.83;;
26375;SDS011;30544;42.196;24.336;2022-12-18T14:45:55;32.08;;;19.25;;
26375;SDS011;30544;42.196;24.336;2022-12-18T14:48:25;29.85;;;17.63;;
26375;SDS011;30544;42.196;24.336;2022-12-18T14:51:05;30.17;;;18.05;;
26375;SDS011;30544;42.196;24.336;2022-12-18T14:53:41;27.75;;;16.58;;
26375;SDS011;30544;42.196;24.336;2022-12-18T14:56:13;31.23;;;18.55;;